Terminal Aerodrome Forecast
Issued by NWS

Home | Current Version | Previous Version | Text Only | Print | Product List | Glossary On
Versions: 1 2 3 4 5 6 7 8 9 10 11 12 13 14 15 16 17 18 19 20 21 22 23 24 25 26 27 28 29 30 31 32 33 34 35 36 37 38 39 40 41 42 43 44 45 46
229
FTUS45 KGJT 131610 AAM
TAFRIL
TAF AMD
KRIL 131610Z 1316/1412 VRB04KT 6SM BR OVC045
      TEMPO 1316/1318 1/2SM FG BKN002 OVC045
     FM131800 28008KT P6SM BKN050
     FM140400 VRB03KT P6SM VCSH SCT025 OVC040
     FM140800 VRB04KT 5SM -SHSN SCT008 OVC035=

USA.gov is the U.S. government's official web portal to all federal, state and local government web resources and services.